Terminal Aerodrome Forecast
Issued by NWS Billings, MT

Home | Current Version | Previous Version | Text Only | Print | Product List | Glossary Off
Versions: 1 2 3 4 5 6 7 8 9 10 11 12 13 14 15 16 17 18 19 20 21 22 23 24 25 26 27 28 29 30

000
FTUS45 KBYZ 230531
TAFMLS
TAF
KMLS 230531Z 2306/2406 34012KT P6SM OVC018
     FM231000 30008KT P6SM OVC025
     FM231600 29008KT P6SM SCT100
     FM240100 17006KT P6SM SCT200=

USA.gov is the U.S. government's official web portal to all federal, state and local government web resources and services.